createdAt,value
2023-10-24T06:03:00.383Z,6.50
2023-10-24T06:05:27.428Z,6.60
2023-10-24T06:07:54.327Z,6.50
2023-10-24T06:10:21.228Z,6.50
2023-10-24T06:12:48.049Z,6.50
2023-10-24T06:15:14.806Z,6.40
2023-10-24T06:17:41.649Z,6.40
2023-10-24T06:20:08.712Z,6.50
2023-10-24T06:22:35.519Z,6.50
2023-10-24T06:25:02.501Z,6.30
2023-10-24T06:27:29.378Z,6.40
2023-10-24T06:29:56.268Z,6.40
2023-10-24T06:32:23.193Z,6.30
2023-10-24T06:34:50.137Z,6.30
2023-10-24T06:37:17.084Z,6.40
2023-10-24T06:39:44.143Z,6.30
2023-10-24T06:42:11.125Z,6.30
2023-10-24T06:44:37.967Z,6.30
2023-10-24T06:47:05.104Z,6.20
2023-10-24T06:49:31.998Z,6.40
2023-10-24T06:51:59.349Z,6.30
2023-10-24T06:54:26.576Z,6.20
2023-10-24T06:56:53.472Z,6.40
2023-10-24T06:59:20.357Z,6.40
2023-10-24T07:01:47.360Z,6.30
2023-10-24T07:04:14.284Z,6.40
2023-10-24T07:06:41.119Z,6.40
2023-10-24T07:09:07.893Z,6.30
2023-10-24T07:11:34.683Z,6.50
2023-10-24T07:14:01.626Z,6.40
2023-10-24T07:16:28.684Z,6.50
2023-10-24T07:18:55.561Z,6.50
2023-10-24T07:21:22.642Z,6.60
2023-10-24T07:23:49.483Z,6.80
2023-10-24T07:26:16.436Z,6.60
2023-10-24T07:28:43.368Z,6.40
2023-10-24T07:31:10.253Z,6.50
2023-10-24T07:33:37.028Z,6.40
2023-10-24T07:36:04.739Z,6.40
2023-10-24T07:38:31.726Z,6.40
2023-10-24T07:40:58.581Z,6.30
2023-10-24T07:43:25.516Z,6.50
2023-10-24T07:45:52.709Z,6.50
2023-10-24T07:48:20.784Z,6.50
2023-10-24T07:50:50.649Z,6.60
2023-10-24T07:53:18.107Z,6.40
2023-10-24T07:55:45.324Z,6.60
2023-10-24T07:58:12.181Z,6.60
2023-10-24T08:00:39.096Z,6.60
2023-10-24T08:03:06.137Z,6.60
2023-10-24T08:05:33.434Z,6.50
2023-10-24T08:08:00.275Z,6.80
2023-10-24T08:10:27.148Z,6.80
2023-10-24T08:12:54.014Z,6.70
2023-10-24T08:15:20.888Z,6.70
2023-10-24T08:17:47.829Z,6.90
2023-10-24T08:20:14.891Z,6.80
2023-10-24T08:22:41.753Z,6.80
2023-10-24T08:25:08.773Z,6.90
2023-10-24T08:27:35.659Z,6.70
2023-10-24T08:30:04.529Z,6.70
2023-10-24T08:32:31.474Z,6.80
2023-10-24T08:34:58.312Z,6.80
2023-10-24T08:37:25.156Z,6.80
2023-10-24T08:39:51.986Z,6.80
2023-10-24T08:42:18.819Z,6.80
2023-10-24T08:44:46.454Z,6.80
2023-10-24T08:47:14.653Z,6.80
2023-10-24T08:49:42.155Z,6.80
2023-10-24T08:52:23.203Z,6.80
2023-10-24T08:54:58.806Z,6.70
2023-10-24T08:57:28.279Z,6.80
2023-10-24T08:59:56.342Z,6.80
2023-10-24T09:02:23.340Z,6.80
2023-10-24T09:04:53.469Z,6.80
2023-10-24T09:07:20.303Z,6.70
2023-10-24T09:09:47.186Z,6.90
2023-10-24T09:12:16.931Z,6.90
2023-10-24T09:14:53.540Z,6.90
2023-10-24T09:17:22.686Z,7.00
2023-10-24T09:19:49.841Z,7.00
2023-10-24T09:22:17.370Z,6.90
2023-10-24T09:24:48.194Z,7.10
2023-10-24T09:27:16.001Z,7.00
2023-10-24T09:29:43.376Z,6.90
2023-10-24T09:32:19.660Z,6.90
2023-10-24T09:34:47.436Z,7.00
2023-10-24T09:37:18.123Z,7.00
2023-10-24T09:39:54.645Z,7.00
2023-10-24T09:42:29.049Z,7.00
2023-10-24T09:44:58.699Z,6.90
2023-10-24T09:47:26.021Z,6.90
2023-10-24T09:49:57.038Z,7.00
2023-10-24T09:52:25.344Z,6.80
2023-10-24T09:54:52.847Z,6.90
2023-10-24T09:57:21.728Z,7.00
2023-10-24T09:59:49.235Z,6.80
2023-10-24T10:02:17.660Z,7.00
2023-10-24T10:04:45.346Z,7.00
2023-10-24T10:07:13.059Z,7.00
2023-10-24T10:09:43.599Z,7.00
2023-10-24T10:12:14.851Z,7.00
2023-10-24T10:15:08.173Z,7.00
2023-10-24T10:17:38.291Z,7.00
2023-10-24T10:20:11.417Z,6.90
2023-10-24T10:22:40.397Z,7.00
2023-10-24T10:25:10.737Z,7.00
2023-10-24T10:28:00.710Z,7.00
2023-10-24T10:30:54.014Z,6.90
2023-10-24T10:33:24.501Z,7.00
2023-10-24T10:35:51.670Z,7.20
2023-10-24T10:38:39.557Z,7.20
2023-10-24T10:41:23.313Z,7.30
2023-10-24T10:43:50.217Z,7.10
2023-10-24T10:46:17.885Z,7.30
2023-10-24T10:48:44.772Z,7.40
2023-10-24T10:51:15.199Z,7.40
2023-10-24T10:53:45.275Z,7.60
2023-10-24T10:56:17.899Z,7.70
2023-10-24T10:58:44.727Z,7.80
2023-10-24T11:01:29.868Z,7.60
2023-10-24T11:03:59.874Z,7.70
2023-10-24T11:06:28.482Z,7.70
2023-10-24T11:09:08.631Z,7.60
2023-10-24T11:11:35.484Z,7.60
2023-10-24T11:14:20.363Z,7.60
2023-10-24T11:16:49.663Z,7.50
2023-10-24T11:19:26.170Z,7.60
2023-10-24T11:21:54.275Z,7.50
2023-10-24T11:24:24.276Z,7.40
2023-10-24T11:26:53.980Z,7.50
2023-10-24T11:29:21.297Z,7.40
2023-10-24T11:31:51.121Z,7.50
2023-10-24T11:34:19.977Z,7.50
2023-10-24T11:36:47.355Z,7.60
2023-10-24T11:39:17.385Z,7.50
2023-10-24T11:41:44.651Z,7.50
2023-10-24T11:44:17.105Z,7.50
2023-10-24T11:46:44.564Z,7.60
2023-10-24T11:49:14.333Z,7.40
2023-10-24T11:51:41.114Z,7.50
2023-10-24T11:54:08.606Z,7.40
2023-10-24T11:56:35.725Z,7.40
2023-10-24T11:59:03.506Z,7.30
2023-10-24T12:01:31.511Z,7.50
2023-10-24T12:03:59.542Z,7.40
2023-10-24T12:06:27.658Z,7.40
2023-10-24T12:08:55.180Z,7.20
2023-10-24T12:11:25.326Z,7.40
2023-10-24T12:13:52.437Z,7.40
2023-10-24T12:16:19.413Z,7.20
2023-10-24T12:18:46.358Z,7.40
2023-10-24T12:21:13.535Z,7.30
2023-10-24T12:23:40.497Z,7.30
2023-10-24T12:26:07.959Z,7.30
2023-10-24T12:28:35.936Z,7.20
2023-10-24T12:31:03.383Z,7.20
2023-10-24T12:33:30.797Z,7.30
2023-10-24T12:35:59.364Z,7.40
2023-10-24T12:38:27.107Z,7.40
2023-10-24T12:40:54.035Z,7.30
2023-10-24T12:43:20.856Z,7.20
2023-10-24T12:45:47.719Z,7.20
2023-10-24T12:48:18.572Z,7.30
2023-10-24T12:50:46.334Z,7.30
2023-10-24T12:53:14.009Z,7.20
2023-10-24T12:55:41.152Z,7.30
2023-10-24T12:58:08.114Z,7.40
2023-10-24T13:00:35.202Z,7.30
2023-10-24T13:03:14.583Z,7.30
2023-10-24T13:05:43.157Z,7.20
2023-10-24T13:08:10.254Z,7.40
2023-10-24T13:10:37.192Z,7.30
2023-10-24T13:13:04.134Z,7.30
2023-10-24T13:15:31.005Z,7.40
2023-10-24T13:17:57.912Z,7.40
2023-10-24T13:20:24.818Z,7.30
2023-10-24T13:22:53.178Z,7.20
2023-10-24T13:25:20.143Z,7.30
2023-10-24T13:27:46.912Z,7.30
2023-10-24T13:30:19.354Z,7.30
2023-10-24T13:32:56.544Z,7.20
2023-10-24T13:37:53.256Z,7.20
2023-10-24T13:40:21.466Z,7.20
2023-10-24T13:42:48.292Z,7.10
2023-10-24T13:45:15.174Z,7.20
2023-10-24T13:47:41.994Z,7.20
2023-10-24T13:50:09.174Z,7.30
2023-10-24T13:52:36.337Z,7.10
2023-10-24T13:55:03.283Z,7.20
2023-10-24T13:57:30.404Z,7.10
2023-10-24T13:59:58.467Z,7.30
2023-10-24T14:02:25.425Z,7.20
2023-10-24T14:04:52.327Z,7.30
2023-10-24T14:07:19.192Z,7.30
2023-10-24T14:09:45.976Z,7.30
2023-10-24T14:12:12.885Z,7.20
2023-10-24T14:14:39.712Z,7.30
2023-10-24T14:17:06.671Z,7.40
2023-10-24T14:19:36.886Z,7.20
2023-10-24T14:22:03.893Z,7.20
2023-10-24T14:24:31.298Z,7.20
2023-10-24T14:26:58.133Z,7.20
2023-10-24T14:29:24.945Z,7.00
2023-10-24T14:31:52.590Z,7.10
2023-10-24T14:34:19.463Z,7.30
2023-10-24T14:36:47.977Z,7.30
2023-10-24T14:39:15.872Z,7.10
2023-10-24T14:41:42.929Z,7.00
2023-10-24T14:44:09.802Z,7.00
2023-10-24T14:46:36.744Z,7.00
2023-10-24T14:49:03.622Z,6.90
2023-10-24T14:51:30.394Z,7.10
2023-10-24T14:53:57.235Z,7.10
2023-10-24T14:56:24.061Z,6.90
2023-10-24T14:58:50.927Z,6.90
2023-10-24T15:01:17.926Z,6.90
2023-10-24T15:03:44.963Z,6.90
2023-10-24T15:06:11.848Z,6.90
2023-10-24T15:08:38.814Z,6.90
2023-10-24T15:11:05.910Z,7.00
2023-10-24T15:13:32.805Z,6.90
2023-10-24T15:15:59.667Z,6.80
2023-10-24T15:18:26.600Z,6.90
2023-10-24T15:20:53.491Z,6.90
2023-10-24T15:23:20.379Z,6.90
2023-10-24T15:25:47.299Z,6.90
2023-10-24T15:28:14.193Z,6.80
2023-10-24T15:30:41.829Z,6.90
2023-10-24T15:33:09.561Z,6.80
2023-10-24T15:35:36.484Z,7.10
2023-10-24T15:38:04.510Z,7.10
2023-10-24T15:40:31.453Z,7.00
2023-10-24T15:42:58.427Z,7.00
2023-10-24T15:45:25.340Z,7.00
2023-10-24T15:47:52.196Z,6.90
2023-10-24T15:50:19.242Z,7.00
2023-10-24T15:52:48.117Z,6.90
2023-10-24T15:55:27.244Z,6.90
2023-10-24T15:57:58.931Z,6.90
2023-10-24T16:00:30.718Z,6.80
2023-10-24T16:02:58.126Z,6.90
2023-10-24T16:05:25.122Z,6.70
2023-10-24T16:07:52.048Z,6.80
2023-10-24T16:10:19.306Z,6.90
2023-10-24T16:12:46.138Z,6.80
2023-10-24T16:15:12.991Z,6.80
2023-10-24T16:17:40.185Z,6.80
2023-10-24T16:20:07.582Z,6.70
2023-10-24T16:22:34.583Z,6.60
2023-10-24T16:25:01.459Z,6.60
2023-10-24T16:27:28.209Z,6.70
2023-10-24T16:29:55.040Z,6.70
2023-10-24T16:32:23.012Z,6.80
2023-10-24T16:34:49.906Z,6.70
2023-10-24T16:37:17.516Z,6.60
2023-10-24T16:39:44.443Z,6.80
2023-10-24T16:42:11.322Z,6.60
2023-10-24T16:44:38.162Z,6.70
2023-10-24T16:47:05.145Z,6.60
2023-10-24T16:49:32.026Z,6.50
2023-10-24T16:52:01.229Z,6.60
2023-10-24T16:54:29.123Z,6.60
2023-10-24T16:56:59.486Z,6.70
2023-10-24T16:59:27.602Z,6.60
2023-10-24T17:01:54.502Z,6.50
2023-10-24T17:04:21.380Z,6.40
2023-10-24T17:06:50.728Z,6.40
2023-10-24T17:09:17.906Z,6.40
2023-10-24T17:11:44.728Z,6.30
2023-10-24T17:14:11.559Z,6.40
2023-10-24T17:16:38.447Z,6.40
2023-10-24T17:19:05.571Z,6.30
2023-10-24T17:21:32.931Z,6.20
2023-10-24T17:24:01.065Z,6.40
2023-10-24T17:26:27.943Z,6.40
2023-10-24T17:28:54.813Z,6.30
2023-10-24T17:31:21.913Z,6.30
2023-10-24T17:33:48.942Z,6.20
2023-10-24T17:36:15.844Z,6.30
2023-10-24T17:38:42.740Z,6.20
2023-10-24T17:41:13.773Z,6.30
2023-10-24T17:43:42.952Z,6.30
2023-10-24T17:46:10.288Z,6.30
2023-10-24T17:48:38.274Z,6.30
2023-10-24T17:51:08.241Z,6.20
2023-10-24T17:53:35.146Z,6.20
2023-10-24T17:56:02.638Z,6.10
2023-10-24T17:58:29.697Z,6.10
2023-10-24T18:00:56.612Z,6.10
2023-10-24T18:03:24.005Z,6.20
2023-10-24T18:05:51.808Z,6.20
2023-10-24T18:08:18.941Z,6.20
2023-10-24T18:10:46.176Z,6.00
2023-10-24T18:13:13.750Z,6.00
2023-10-24T18:15:40.675Z,6.10
2023-10-24T18:18:08.375Z,5.90
2023-10-24T18:20:35.435Z,6.10
2023-10-24T18:23:02.483Z,6.00
2023-10-24T18:25:29.349Z,5.80
2023-10-24T18:27:56.968Z,6.10
2023-10-24T18:30:23.993Z,6.00
2023-10-24T18:32:50.964Z,6.00
2023-10-24T18:35:17.914Z,5.90
2023-10-24T18:37:44.802Z,6.00
2023-10-24T18:40:14.101Z,6.10
2023-10-24T18:42:41.117Z,5.80
2023-10-24T18:45:08.133Z,6.00
2023-10-24T18:47:35.100Z,5.90
2023-10-24T18:50:02.115Z,5.80
2023-10-24T18:52:29.108Z,6.00
2023-10-24T18:54:55.995Z,5.90
2023-10-24T18:57:22.865Z,5.90
2023-10-24T18:59:59.959Z,5.90
2023-10-24T19:02:27.634Z,5.80
2023-10-24T19:04:56.186Z,5.90
2023-10-24T19:07:23.189Z,5.80
2023-10-24T19:09:50.156Z,5.80
2023-10-24T19:12:17.206Z,5.80
2023-10-24T19:14:44.747Z,5.90
2023-10-24T19:17:12.238Z,5.90
2023-10-24T19:19:39.258Z,6.00
2023-10-24T19:22:07.372Z,5.90
2023-10-24T19:24:35.712Z,6.00
2023-10-24T19:27:02.818Z,5.90
2023-10-24T19:29:29.791Z,5.70
2023-10-24T19:31:56.838Z,5.80
2023-10-24T19:34:23.848Z,5.90
2023-10-24T19:36:51.811Z,5.90
2023-10-24T19:39:18.853Z,5.90
2023-10-24T19:41:45.946Z,5.80
2023-10-24T19:44:13.239Z,5.80
2023-10-24T19:46:43.975Z,5.70
2023-10-24T19:49:13.868Z,5.80
2023-10-24T19:51:41.047Z,5.70
2023-10-24T19:54:08.393Z,5.60
2023-10-24T19:56:35.590Z,5.50
2023-10-24T19:59:02.576Z,5.70
2023-10-24T20:01:29.981Z,5.60
2023-10-24T20:03:57.308Z,5.60
2023-10-24T20:06:27.346Z,5.70
2023-10-24T20:08:56.173Z,5.60
2023-10-24T20:12:33.331Z,5.50
2023-10-24T20:14:10.285Z,5.50
2023-10-24T20:16:37.171Z,5.30
2023-10-24T20:19:04.124Z,5.60
2023-10-24T20:21:31.154Z,5.60
2023-10-24T20:23:58.045Z,5.50
2023-10-24T20:26:25.098Z,5.40
2023-10-24T20:28:53.768Z,5.20
2023-10-24T20:31:20.734Z,5.30
2023-10-24T20:33:47.734Z,5.40
2023-10-24T20:36:14.701Z,5.20
2023-10-24T20:38:41.637Z,5.30
2023-10-24T20:41:08.488Z,5.10
2023-10-24T20:43:35.264Z,5.20
2023-10-24T20:46:02.492Z,5.10
2023-10-24T20:48:29.451Z,5.10
2023-10-24T20:50:56.366Z,5.20
2023-10-24T20:53:23.757Z,5.00
2023-10-24T20:55:58.291Z,5.20
2023-10-24T20:58:25.160Z,5.00
2023-10-24T21:00:52.521Z,4.80
2023-10-24T21:03:19.934Z,4.90
2023-10-24T21:05:47.035Z,5.10
2023-10-24T21:08:13.862Z,4.90
2023-10-24T21:10:40.706Z,4.90
2023-10-24T21:13:07.646Z,4.70
2023-10-24T21:15:34.625Z,4.80
2023-10-24T21:18:01.549Z,4.80
2023-10-24T21:20:28.442Z,4.90
2023-10-24T21:22:55.218Z,4.80
2023-10-24T21:25:22.158Z,4.80
2023-10-24T21:27:49.047Z,4.60
2023-10-24T21:30:15.914Z,4.70
2023-10-24T21:32:42.834Z,4.90
2023-10-24T21:35:09.720Z,4.90
2023-10-24T21:37:36.508Z,4.70
2023-10-24T21:40:04.071Z,4.50
2023-10-24T21:42:31.018Z,4.60
2023-10-24T21:44:57.927Z,4.60
2023-10-24T21:47:24.787Z,4.60
2023-10-24T21:49:51.631Z,4.70
2023-10-24T21:52:18.448Z,4.70
2023-10-24T21:54:45.810Z,4.70
2023-10-24T21:57:14.145Z,4.60
2023-10-24T21:59:41.331Z,4.70
2023-10-24T22:02:08.423Z,4.80
2023-10-24T22:04:35.347Z,4.70
2023-10-24T22:07:02.291Z,4.80
2023-10-24T22:09:29.634Z,4.80
2023-10-24T22:11:56.410Z,4.70
2023-10-24T22:14:23.211Z,4.80
2023-10-24T22:16:50.071Z,4.70
2023-10-24T22:19:16.879Z,4.80
2023-10-24T22:21:45.106Z,4.60
2023-10-24T22:24:11.931Z,4.70
2023-10-24T22:26:38.744Z,4.70
2023-10-24T22:29:05.478Z,4.80
2023-10-24T22:31:32.544Z,4.70
2023-10-24T22:33:59.386Z,4.50
2023-10-24T22:36:26.219Z,4.50
2023-10-24T22:38:53.009Z,4.70
2023-10-24T22:41:19.854Z,4.50
2023-10-24T22:43:46.699Z,4.60
2023-10-24T22:46:13.552Z,4.50
2023-10-24T22:48:40.483Z,4.50
2023-10-24T22:51:07.454Z,4.60
2023-10-24T22:53:34.253Z,4.50
2023-10-24T22:56:01.026Z,4.50
2023-10-24T22:58:27.928Z,4.60
2023-10-24T23:00:54.789Z,4.40
2023-10-24T23:03:21.911Z,4.60
2023-10-24T23:05:48.834Z,4.40
2023-10-24T23:08:15.739Z,4.60
2023-10-24T23:10:42.551Z,4.70
2023-10-24T23:13:09.373Z,4.60
2023-10-24T23:15:38.984Z,4.50
2023-10-24T23:18:05.895Z,4.60
2023-10-24T23:20:32.768Z,4.50
2023-10-24T23:22:59.500Z,4.70
2023-10-24T23:25:26.259Z,4.70
2023-10-24T23:27:53.219Z,4.50
2023-10-24T23:30:20.130Z,4.60
2023-10-24T23:32:46.982Z,4.40
2023-10-24T23:35:13.877Z,4.40
2023-10-24T23:37:40.699Z,4.50
2023-10-24T23:40:07.993Z,4.50
2023-10-24T23:42:34.805Z,4.30
2023-10-24T23:45:01.614Z,4.40
2023-10-24T23:47:28.428Z,4.60
2023-10-24T23:49:55.288Z,4.60
2023-10-24T23:52:22.147Z,4.50
2023-10-24T23:54:49.362Z,4.60
2023-10-24T23:57:16.219Z,4.60
2023-10-24T23:59:43.267Z,4.50
